Worth, IL (60482)

10:26 PM CST on March 03, 2015 (GMT -0600)
Southwest Ball Hockey | Change Station
CLOSE
Current Station
Personal Weather Station
Location: Alsip, IL
Elevation: 617 ft
Nearby Weather Stations

Elev 617 ft 41.68 °N, 87.76 °W | Updated 13 seconds ago

Overcast
Overcast
32.0 °F
Feels Like 32 °F
N
0.0
Wind Variable Wind from ESE
Gusts 0.0 mph

Today
High -- | Low -- °F
--% Chance of Precip.
Yesterday
High -- | Low -- °F
Precip. -- in
6:23 AM 5:43 PM
Waxing Gibbous, 98% visible
Pressure 29.90 in
Visibility 10.0 miles
Clouds Scattered Clouds 2700 ft
Overcast 17000 ft
Windchill 32 °F
Dew Point 26 °F
Humidity 78%
Rainfall 0.00 in
Snow Depth Not available.
UV 0 out of 12
Pollen .50 out of 12
Air Quality Not available.
Flu Activity Not available.
METAR KMDW 040353Z 28007KT 10SM SCT027 OVC170 01/M04 A2987 RMK AO2 SLP125 T00111039

More Conditions Fewer Conditions

Pressure 29.90 in
Visibility 10.0 miles
Clouds Scattered Clouds 2700 ft
Overcast 17000 ft
Windchill 32 °F
Dew Point 26 °F
Humidity 78%
Rainfall 0.00 in
Snow Depth Not available.
UV 0 out of 12
Pollen .50 out of 12
Air Quality Not available.
Flu Activity Not available.
METAR KMDW 040353Z 28007KT 10SM SCT027 OVC170 01/M04 A2987 RMK AO2 SLP125 T00111039

More Conditions Fewer Conditions

10-Day Weather Forecast

Almanac

Astronomy

Mar. 03, 2015 Rise Set
Actual Time
Civil Twilight
Nautical Twilight
Astronomical Twilight
Moon
Length of Visible Light
Length of Day
Tomorrow will be .
, % of the Moon is Illuminated

Today's Extremes

State Highs State Lows

Community

WunderPhotos

Upload Photos

1,802,383 photos uploaded!

WunderBlogs® & News

Nearby

Air Quality

  Air Quality AQ Index Pollutant
Not available.

Snow Depth

Station Depth Elevation

Earthquake Activity

City Distance Mag. Time & Date
Minimum magnitude displayed is 2.5.

Coastal Water Temperatures

Place Temperature

Nearby Weather Stations